Time;durP1;ratioP1;P1;durP2;ratioP2;P2;SDS_P1;SDS_P2;PMS_P1;PMS_P2;Temp;Humidity;BMP_temperature;BMP_pressure;BME280_temperature;BME280_humidity;BME280_pressure;Samples;Min_cycle;Max_cycle;Signal;HPM_P1;HPM_P2
2022/09/30 00:00:39;;;;;;;8.20;6.10;;;;;;;;;;5016246;28;20179;-70
2022/09/30 00:03:04;;;;;;;7.20;5.77;;;;;;;;;;5016960;28;20202;-71
2022/09/30 00:05:29;;;;;;;6.53;5.60;;;;;;;;;;5019718;28;20544;-70
2022/09/30 00:07:54;;;;;;;7.17;6.00;;;;;;;;;;5016740;28;20189;-69
2022/09/30 00:10:20;;;;;;;6.07;5.47;;;;;;;;;;5021169;28;20170;-71
2022/09/30 00:12:46;;;;;;;6.23;5.63;;;;;;;;;;5016276;28;20213;-70
2022/09/30 00:15:12;;;;;;;8.20;6.10;;;;;;;;;;5009103;28;20238;-71
2022/09/30 00:17:37;;;;;;;7.37;6.00;;;;;;;;;;5024672;28;20206;-70
2022/09/30 00:20:03;;;;;;;7.30;6.10;;;;;;;;;;5023127;28;20660;-71
2022/09/30 00:22:28;;;;;;;5.80;5.20;;;;;;;;;;5028090;28;20277;-70
2022/09/30 00:24:53;;;;;;;8.40;6.23;;;;;;;;;;5019265;28;20174;-71
2022/09/30 00:27:19;;;;;;;7.50;6.10;;;;;;;;;;5020000;28;20675;-73
2022/09/30 00:29:45;;;;;;;6.70;6.00;;;;;;;;;;5018861;28;20213;-71
2022/09/30 00:32:10;;;;;;;7.00;6.23;;;;;;;;;;5031895;28;20226;-71
2022/09/30 00:34:35;;;;;;;6.47;5.87;;;;;;;;;;5028612;28;20571;-70
2022/09/30 00:37:01;;;;;;;8.40;6.63;;;;;;;;;;5021149;28;20716;-70
2022/09/30 00:39:27;;;;;;;6.50;5.80;;;;;;;;;;5017245;28;20186;-70
2022/09/30 00:41:59;;;;;;;7.97;6.80;;;;;;;;;;5027747;28;20174;-73
2022/09/30 00:44:42;;;;;;;7.97;6.77;;;;;;;;;;5027885;28;20719;-70
2022/09/30 00:47:25;;;;;;;7.80;6.67;;;;;;;;;;5027408;28;20890;-70
2022/09/30 00:49:51;;;;;;;8.33;6.77;;;;;;;;;;5006306;28;20648;-70
2022/09/30 00:52:17;;;;;;;8.80;6.40;;;;;;;;;;5016712;28;20257;-70
2022/09/30 00:54:43;;;;;;;7.90;7.00;;;;;;;;;;5027592;28;20201;-70
2022/09/30 00:57:09;;;;;;;9.23;7.07;;;;;;;;;;5025564;28;20214;-70
2022/09/30 00:59:38;;;;;;;9.83;6.93;;;;;;;;;;5025929;28;20225;-72
2022/09/30 01:02:04;;;;;;;8.67;7.43;;;;;;;;;;5026713;28;20256;-72
2022/09/30 01:04:30;;;;;;;8.47;7.57;;;;;;;;;;5025207;28;20192;-72
2022/09/30 01:06:58;;;;;;;8.27;7.20;;;;;;;;;;5026229;28;20178;-72
2022/09/30 01:09:23;;;;;;;9.63;6.93;;;;;;;;;;5024457;28;20281;-72
2022/09/30 01:11:48;;;;;;;8.30;7.40;;;;;;;;;;5014018;28;20689;-72
2022/09/30 01:14:19;;;;;;;8.87;7.67;;;;;;;;;;5019920;28;20657;-72
2022/09/30 01:16:59;;;;;;;9.40;6.30;;;;;;;;;;5021167;28;20171;-72
2022/09/30 01:19:27;;;;;;;8.33;6.83;;;;;;;;;;5016965;28;20212;-72
2022/09/30 01:22:01;;;;;;;9.40;6.73;;;;;;;;;;5018551;28;20265;-72
2022/09/30 01:24:32;;;;;;;8.80;6.87;;;;;;;;;;5017936;28;20200;-72
2022/09/30 01:27:06;;;;;;;10.60;7.37;;;;;;;;;;5016674;28;20195;-70
2022/09/30 01:29:50;;;;;;;7.93;7.13;;;;;;;;;;5020351;28;20260;-72
2022/09/30 01:32:33;;;;;;;11.30;7.77;;;;;;;;;;5016118;28;20199;-72
2022/09/30 01:35:03;;;;;;;9.07;7.27;;;;;;;;;;5022399;28;20556;-72
2022/09/30 01:37:37;;;;;;;8.47;7.33;;;;;;;;;;5022655;28;20183;-73
2022/09/30 01:40:08;;;;;;;11.23;8.00;;;;;;;;;;5027710;28;20219;-71
2022/09/30 01:42:50;;;;;;;11.10;8.47;;;;;;;;;;5021584;28;20209;-70
2022/09/30 01:45:19;;;;;;;10.20;8.27;;;;;;;;;;5022306;28;20240;-71
2022/09/30 01:47:47;;;;;;;12.33;8.10;;;;;;;;;;5020195;28;20186;-70
2022/09/30 01:50:31;;;;;;;11.67;8.43;;;;;;;;;;5029658;28;20210;-72
2022/09/30 01:53:02;;;;;;;8.83;6.83;;;;;;;;;;5016863;28;20204;-70
2022/09/30 01:55:33;;;;;;;9.17;7.40;;;;;;;;;;5029139;28;20605;-72
2022/09/30 01:58:07;;;;;;;6.90;6.20;;;;;;;;;;5026679;28;20178;-69
2022/09/30 02:00:35;;;;;;;6.03;5.40;;;;;;;;;;5015034;28;20183;-72
2022/09/30 02:03:03;;;;;;;8.07;6.03;;;;;;;;;;5016425;28;20194;-72
2022/09/30 02:05:36;;;;;;;9.23;5.57;;;;;;;;;;5020868;28;20186;-71
2022/09/30 02:08:11;;;;;;;6.13;5.33;;;;;;;;;;5024699;28;20269;-71
2022/09/30 02:10:45;;;;;;;5.87;5.03;;;;;;;;;;5024842;28;20186;-72
2022/09/30 02:13:22;;;;;;;7.20;5.23;;;;;;;;;;5027915;28;20338;-71
2022/09/30 02:15:51;;;;;;;5.77;4.53;;;;;;;;;;5021433;28;20785;-71
2022/09/30 02:18:20;;;;;;;5.27;4.57;;;;;;;;;;5025527;28;20640;-72
2022/09/30 02:20:46;;;;;;;5.57;4.87;;;;;;;;;;5024805;28;20178;-73
2022/09/30 02:23:14;;;;;;;4.70;4.30;;;;;;;;;;5018960;28;20245;-70
2022/09/30 02:25:47;;;;;;;5.50;4.47;;;;;;;;;;5028158;28;20186;-72
2022/09/30 02:28:16;;;;;;;5.20;4.63;;;;;;;;;;5021015;28;20190;-72
2022/09/30 02:30:44;;;;;;;5.30;4.47;;;;;;;;;;5020082;28;20178;-71
2022/09/30 02:33:16;;;;;;;5.57;5.07;;;;;;;;;;5026041;28;20211;-70
2022/09/30 02:35:49;;;;;;;6.43;5.07;;;;;;;;;;5021724;28;20329;-70
2022/09/30 02:38:16;;;;;;;6.43;4.53;;;;;;;;;;5023217;28;20174;-72
2022/09/30 02:40:50;;;;;;;5.73;4.97;;;;;;;;;;5025352;28;20553;-72
2022/09/30 02:43:17;;;;;;;6.87;4.90;;;;;;;;;;5021827;28;20252;-72
2022/09/30 02:46:02;;;;;;;6.23;5.20;;;;;;;;;;5003984;28;20196;-72
2022/09/30 02:48:37;;;;;;;6.37;5.57;;;;;;;;;;4976906;28;20650;-72
2022/09/30 02:51:10;;;;;;;7.23;6.00;;;;;;;;;;5022069;28;20181;-69
2022/09/30 02:53:44;;;;;;;8.73;5.63;;;;;;;;;;5025314;28;20198;-70
2022/09/30 02:56:16;;;;;;;6.83;6.03;;;;;;;;;;5019576;28;20225;-69
2022/09/30 02:58:42;;;;;;;8.23;6.63;;;;;;;;;;5027036;28;20301;-72
2022/09/30 03:01:09;;;;;;;8.60;7.13;;;;;;;;;;5023591;28;20635;-70
2022/09/30 03:03:37;;;;;;;7.50;6.70;;;;;;;;;;5025706;28;20288;-70
2022/09/30 03:06:02;;;;;;;6.77;5.83;;;;;;;;;;5020379;28;20687;-70
2022/09/30 03:08:28;;;;;;;7.83;6.13;;;;;;;;;;5025845;28;20218;-70
2022/09/30 03:10:53;;;;;;;9.33;7.03;;;;;;;;;;5014354;28;20622;-72
2022/09/30 03:13:37;;;;;;;8.73;6.93;;;;;;;;;;5021773;28;20648;-70
2022/09/30 03:16:08;;;;;;;7.70;6.83;;;;;;;;;;5015588;28;20694;-72
2022/09/30 03:18:50;;;;;;;8.93;7.47;;;;;;;;;;5010502;28;20177;-72
2022/09/30 03:21:15;;;;;;;8.13;6.33;;;;;;;;;;5020726;28;20661;-72
2022/09/30 03:24:02;;;;;;;7.80;6.43;;;;;;;;;;5021122;28;20289;-70
2022/09/30 03:26:34;;;;;;;8.63;6.83;;;;;;;;;;5029512;28;20249;-70
2022/09/30 03:29:00;;;;;;;8.23;6.60;;;;;;;;;;5025501;28;20248;-70
2022/09/30 03:31:41;;;;;;;9.33;7.40;;;;;;;;;;5022303;28;20186;-70
2022/09/30 03:34:21;;;;;;;8.33;6.30;;;;;;;;;;5022714;28;20573;-70
2022/09/30 03:36:55;;;;;;;7.23;5.97;;;;;;;;;;5025073;28;20465;-71
2022/09/30 03:39:32;;;;;;;7.97;7.13;;;;;;;;;;5024880;28;20200;-70
2022/09/30 03:42:06;;;;;;;10.37;7.50;;;;;;;;;;5020785;28;20233;-70
2022/09/30 03:44:39;;;;;;;7.70;6.43;;;;;;;;;;5024949;28;20278;-70
2022/09/30 03:47:11;;;;;;;10.83;7.13;;;;;;;;;;5023070;28;20313;-70
2022/09/30 03:49:39;;;;;;;10.90;8.43;;;;;;;;;;5002093;28;20283;-71
2022/09/30 03:52:05;;;;;;;11.03;8.43;;;;;;;;;;5032703;28;20249;-71
2022/09/30 03:54:30;;;;;;;9.67;7.83;;;;;;;;;;5023351;28;20202;-69
2022/09/30 03:56:56;;;;;;;9.83;7.97;;;;;;;;;;5011975;28;20182;-73
2022/09/30 03:59:23;;;;;;;9.27;7.70;;;;;;;;;;5011499;28;20213;-71
2022/09/30 04:01:48;;;;;;;11.40;8.47;;;;;;;;;;5023080;28;20583;-71
2022/09/30 04:04:13;;;;;;;10.37;8.17;;;;;;;;;;5022995;28;20190;-72
2022/09/30 04:06:39;;;;;;;12.27;8.83;;;;;;;;;;5024880;28;20201;-71
2022/09/30 04:09:04;;;;;;;11.23;8.90;;;;;;;;;;5022905;28;20597;-70
2022/09/30 04:11:29;;;;;;;12.07;9.40;;;;;;;;;;5023829;28;20188;-71
2022/09/30 04:13:54;;;;;;;9.13;8.10;;;;;;;;;;5028557;28;20246;-71
2022/09/30 04:16:20;;;;;;;11.20;9.13;;;;;;;;;;5027959;28;20280;-70
2022/09/30 04:18:45;;;;;;;11.53;8.23;;;;;;;;;;5025914;28;20556;-71
2022/09/30 04:21:12;;;;;;;9.87;8.10;;;;;;;;;;5011970;28;20190;-71
2022/09/30 04:23:37;;;;;;;9.90;7.67;;;;;;;;;;5023609;28;20213;-70
2022/09/30 04:26:04;;;;;;;10.70;8.17;;;;;;;;;;5029166;28;20179;-71
2022/09/30 04:28:29;;;;;;;11.23;8.93;;;;;;;;;;5030521;28;20179;-71
2022/09/30 04:30:58;;;;;;;14.63;9.23;;;;;;;;;;5029287;28;20518;-70
2022/09/30 04:33:23;;;;;;;13.03;9.43;;;;;;;;;;5022778;28;20199;-71
2022/09/30 04:35:51;;;;;;;12.50;9.23;;;;;;;;;;5022610;28;20206;-70
2022/09/30 04:38:17;;;;;;;12.50;9.67;;;;;;;;;;5027165;28;20261;-70
2022/09/30 04:40:42;;;;;;;16.10;11.20;;;;;;;;;;5031476;28;20249;-70
2022/09/30 04:43:08;;;;;;;17.80;11.73;;;;;;;;;;5027472;28;20205;-69
2022/09/30 04:45:33;;;;;;;18.50;11.60;;;;;;;;;;5012449;28;20765;-71
2022/09/30 04:47:58;;;;;;;21.93;13.07;;;;;;;;;;5024391;28;20662;-70
2022/09/30 04:50:23;;;;;;;16.00;11.57;;;;;;;;;;5014775;28;20630;-71
2022/09/30 04:52:49;;;;;;;16.40;11.10;;;;;;;;;;5026053;28;20206;-70
2022/09/30 04:55:14;;;;;;;15.17;10.90;;;;;;;;;;5026035;28;20199;-71
2022/09/30 04:57:42;;;;;;;18.03;11.17;;;;;;;;;;5024573;28;20182;-70
2022/09/30 05:00:08;;;;;;;15.20;10.77;;;;;;;;;;5023065;28;20184;-70
2022/09/30 05:02:33;;;;;;;16.73;11.27;;;;;;;;;;5019930;28;20198;-71
2022/09/30 05:04:59;;;;;;;20.57;11.30;;;;;;;;;;5025184;28;20629;-71
2022/09/30 05:07:25;;;;;;;14.40;10.13;;;;;;;;;;5024268;28;20278;-71
2022/09/30 05:09:51;;;;;;;23.77;12.23;;;;;;;;;;5022352;28;20640;-70
2022/09/30 05:12:16;;;;;;;17.80;10.80;;;;;;;;;;5028664;28;20206;-71
2022/09/30 05:14:42;;;;;;;28.77;11.17;;;;;;;;;;5020266;28;20212;-71
2022/09/30 05:17:07;;;;;;;12.03;9.70;;;;;;;;;;5021886;28;20182;-70
2022/09/30 05:19:32;;;;;;;12.37;9.40;;;;;;;;;;5024014;28;20538;-70
2022/09/30 05:21:57;;;;;;;14.13;10.37;;;;;;;;;;5031137;28;20174;-71
2022/09/30 05:24:23;;;;;;;12.70;9.70;;;;;;;;;;5023313;28;20196;-70
2022/09/30 05:26:48;;;;;;;15.10;10.73;;;;;;;;;;5032501;28;20554;-71
2022/09/30 05:29:13;;;;;;;11.43;8.77;;;;;;;;;;5023459;28;20171;-70
2022/09/30 05:31:40;;;;;;;13.33;9.93;;;;;;;;;;5021248;28;20170;-70
2022/09/30 05:34:05;;;;;;;10.40;8.90;;;;;;;;;;5026911;28;20210;-70
2022/09/30 05:36:30;;;;;;;10.77;8.90;;;;;;;;;;5018593;28;20626;-71
2022/09/30 05:38:55;;;;;;;9.53;8.23;;;;;;;;;;5024560;28;20185;-70
2022/09/30 05:41:21;;;;;;;10.57;8.60;;;;;;;;;;5023288;28;20179;-72
2022/09/30 05:43:46;;;;;;;10.23;8.23;;;;;;;;;;5010433;28;20240;-72
2022/09/30 05:46:12;;;;;;;10.70;9.07;;;;;;;;;;5006986;28;20293;-72
2022/09/30 05:48:38;;;;;;;9.70;8.07;;;;;;;;;;5022907;28;20182;-70
2022/09/30 05:51:03;;;;;;;8.97;7.50;;;;;;;;;;5006291;28;20667;-72
2022/09/30 05:53:30;;;;;;;9.63;8.10;;;;;;;;;;5020647;28;20210;-73
2022/09/30 05:55:56;;;;;;;10.93;8.00;;;;;;;;;;5015057;28;20249;-71
2022/09/30 05:58:21;;;;;;;8.93;8.03;;;;;;;;;;5019864;28;20178;-70
2022/09/30 06:00:47;;;;;;;10.80;8.30;;;;;;;;;;5023275;28;20262;-70
2022/09/30 06:03:13;;;;;;;10.87;8.97;;;;;;;;;;5008655;28;20223;-70
2022/09/30 06:05:38;;;;;;;13.27;8.83;;;;;;;;;;5015697;28;20217;-71
2022/09/30 06:08:03;;;;;;;10.93;8.70;;;;;;;;;;5019377;28;20190;-71
2022/09/30 06:10:29;;;;;;;10.83;8.87;;;;;;;;;;5014892;28;20226;-71
2022/09/30 06:12:54;;;;;;;10.03;8.80;;;;;;;;;;5013479;28;20687;-71
2022/09/30 06:15:19;;;;;;;14.47;10.10;;;;;;;;;;5020400;28;20198;-71
2022/09/30 06:17:50;;;;;;;11.97;9.37;;;;;;;;;;5002255;28;20201;-71
2022/09/30 06:20:15;;;;;;;15.43;10.70;;;;;;;;;;5021426;28;20183;-71
2022/09/30 06:22:42;;;;;;;14.70;10.67;;;;;;;;;;5020357;28;20213;-71
2022/09/30 06:25:07;;;;;;;16.87;11.93;;;;;;;;;;5024361;28;20181;-71
2022/09/30 06:27:33;;;;;;;16.03;11.93;;;;;;;;;;5013695;28;20182;-71
2022/09/30 06:29:58;;;;;;;14.73;12.20;;;;;;;;;;5021369;28;20182;-71
2022/09/30 06:32:25;;;;;;;21.67;14.83;;;;;;;;;;5020833;28;20553;-71
2022/09/30 06:34:50;;;;;;;21.07;14.37;;;;;;;;;;5021058;28;20341;-71
2022/09/30 06:37:17;;;;;;;24.27;15.93;;;;;;;;;;5013679;28;20273;-71
2022/09/30 06:39:42;;;;;;;21.97;14.83;;;;;;;;;;5006971;28;20174;-71
2022/09/30 06:42:07;;;;;;;20.87;15.80;;;;;;;;;;5019119;28;20193;-71
2022/09/30 06:44:33;;;;;;;23.90;16.23;;;;;;;;;;5022736;28;20257;-71
2022/09/30 06:46:58;;;;;;;26.90;18.27;;;;;;;;;;5021776;28;20201;-71
2022/09/30 06:49:23;;;;;;;28.87;17.67;;;;;;;;;;5006758;28;20676;-71
2022/09/30 06:51:50;;;;;;;33.60;19.80;;;;;;;;;;5018811;28;20186;-72
2022/09/30 06:54:15;;;;;;;35.10;21.50;;;;;;;;;;5014224;28;20243;-71
2022/09/30 06:56:40;;;;;;;35.23;21.93;;;;;;;;;;5016410;28;20742;-72
2022/09/30 06:59:05;;;;;;;38.53;22.20;;;;;;;;;;5019870;28;20175;-70
2022/09/30 07:01:31;;;;;;;42.70;24.67;;;;;;;;;;5022171;28;20178;-72
2022/09/30 07:03:56;;;;;;;41.97;25.80;;;;;;;;;;5020443;28;20195;-72
2022/09/30 07:06:22;;;;;;;43.90;26.73;;;;;;;;;;5017506;28;20183;-72
2022/09/30 07:08:47;;;;;;;44.83;27.60;;;;;;;;;;5023546;28;20629;-72
2022/09/30 07:11:16;;;;;;;49.50;28.50;;;;;;;;;;5020036;28;20257;-72
2022/09/30 07:13:45;;;;;;;39.87;26.77;;;;;;;;;;5021604;28;20206;-72
2022/09/30 07:16:12;;;;;;;42.30;25.53;;;;;;;;;;5019312;28;20654;-72
2022/09/30 07:18:37;;;;;;;35.93;25.20;;;;;;;;;;5016851;28;20181;-72
2022/09/30 07:21:03;;;;;;;36.37;24.50;;;;;;;;;;5028223;28;20229;-72
2022/09/30 07:23:28;;;;;;;33.93;23.13;;;;;;;;;;5022090;28;20217;-72
2022/09/30 07:25:57;;;;;;;29.93;21.87;;;;;;;;;;5032613;28;20266;-72
2022/09/30 07:28:26;;;;;;;28.20;20.83;;;;;;;;;;5025990;28;20635;-72
2022/09/30 07:30:55;;;;;;;24.83;19.87;;;;;;;;;;5026618;28;20174;-70
2022/09/30 07:33:20;;;;;;;22.40;17.27;;;;;;;;;;5031384;28;20609;-72
2022/09/30 07:35:49;;;;;;;19.33;16.60;;;;;;;;;;5026641;28;20197;-72
2022/09/30 07:38:15;;;;;;;21.23;16.47;;;;;;;;;;5008434;28;20191;-70
2022/09/30 07:40:41;;;;;;;21.67;16.87;;;;;;;;;;5027507;28;20179;-75
2022/09/30 07:43:07;;;;;;;17.53;15.07;;;;;;;;;;5004027;28;20268;-72
2022/09/30 07:45:32;;;;;;;18.48;15.30;;;;;;;;;;5022511;28;20178;-69
2022/09/30 07:47:58;;;;;;;18.70;14.10;;;;;;;;;;5027813;28;20697;-72
2022/09/30 07:50:23;;;;;;;16.65;14.90;;;;;;;;;;5003850;28;20657;-72
2022/09/30 07:52:48;;;;;;;16.98;13.02;;;;;;;;;;5017465;28;20199;-71
2022/09/30 07:55:13;;;;;;;14.70;12.38;;;;;;;;;;5027301;28;20264;-71
2022/09/30 07:57:39;;;;;;;12.82;11.07;;;;;;;;;;5022383;28;20541;-69
2022/09/30 08:00:06;;;;;;;16.02;12.32;;;;;;;;;;5018527;28;20330;-72
2022/09/30 08:02:31;;;;;;;13.27;11.27;;;;;;;;;;5026580;28;20198;-71
2022/09/30 08:04:57;;;;;;;13.95;12.45;;;;;;;;;;5025410;28;20182;-69
2022/09/30 08:07:22;;;;;;;13.70;11.68;;;;;;;;;;5021491;28;20183;-69
2022/09/30 08:09:47;;;;;;;13.90;11.85;;;;;;;;;;5027871;28;20192;-70
2022/09/30 08:12:13;;;;;;;13.98;11.30;;;;;;;;;;5027082;28;20202;-71
2022/09/30 08:14:38;;;;;;;12.93;10.55;;;;;;;;;;5028668;28;20657;-71
2022/09/30 08:17:03;;;;;;;12.85;11.02;;;;;;;;;;5029290;28;20171;-70
2022/09/30 08:19:29;;;;;;;12.48;10.88;;;;;;;;;;5005414;28;20174;-70
2022/09/30 08:21:54;;;;;;;12.05;9.98;;;;;;;;;;5021932;28;20257;-70
2022/09/30 08:24:20;;;;;;;13.05;10.40;;;;;;;;;;5022609;28;20205;-70
2022/09/30 08:26:46;;;;;;;12.05;10.05;;;;;;;;;;5012459;28;20182;-69
2022/09/30 08:29:13;;;;;;;11.82;9.65;;;;;;;;;;5031240;28;20181;-69
2022/09/30 08:31:39;;;;;;;10.02;8.35;;;;;;;;;;5028478;28;20236;-70
2022/09/30 08:34:04;;;;;;;9.93;8.93;;;;;;;;;;5029345;28;20202;-70
2022/09/30 08:36:29;;;;;;;11.25;10.15;;;;;;;;;;5025070;28;20657;-69
2022/09/30 08:38:55;;;;;;;9.75;8.43;;;;;;;;;;5024101;28;20167;-70
2022/09/30 08:41:39;;;;;;;9.60;8.65;;;;;;;;;;5011335;28;20265;-70
2022/09/30 08:44:07;;;;;;;9.15;8.25;;;;;;;;;;5026308;28;20198;-70
2022/09/30 08:46:41;;;;;;;8.40;7.60;;;;;;;;;;5024836;28;20182;-69
2022/09/30 08:49:06;;;;;;;8.70;7.72;;;;;;;;;;5027484;28;20184;-69
2022/09/30 08:51:37;;;;;;;8.20;7.32;;;;;;;;;;5018997;28;20187;-70
2022/09/30 08:54:05;;;;;;;6.82;6.15;;;;;;;;;;5029549;28;20466;-70
2022/09/30 08:56:32;;;;;;;7.38;6.78;;;;;;;;;;5022487;28;20268;-70
2022/09/30 08:59:00;;;;;;;8.10;7.28;;;;;;;;;;5017088;28;20708;-70
2022/09/30 09:01:32;;;;;;;8.20;6.40;;;;;;;;;;5020395;28;20178;-70
2022/09/30 09:03:59;;;;;;;7.18;6.47;;;;;;;;;;5027861;28;20194;-70
2022/09/30 09:06:24;;;;;;;6.47;5.88;;;;;;;;;;5022997;28;21881;-70
2022/09/30 09:09:14;;;;;;;8.45;6.70;;;;;;;;;;5023847;28;20257;-70
2022/09/30 09:11:55;;;;;;;5.13;4.63;;;;;;;;;;5018196;28;20240;-69
2022/09/30 09:14:21;;;;;;;5.68;5.18;;;;;;;;;;5023657;28;20543;-69
2022/09/30 09:16:58;;;;;;;7.33;5.67;;;;;;;;;;5017065;28;20221;-69
2022/09/30 09:19:25;;;;;;;5.65;5.15;;;;;;;;;;5022445;28;20418;-70
2022/09/30 09:21:55;;;;;;;5.60;4.18;;;;;;;;;;5016657;28;20182;-69
2022/09/30 09:24:23;;;;;;;5.85;4.43;;;;;;;;;;5018246;28;20191;-70
2022/09/30 09:26:48;;;;;;;5.93;4.47;;;;;;;;;;5020313;28;20195;-70
2022/09/30 09:29:32;;;;;;;7.22;4.32;;;;;;;;;;5022464;28;20187;-69
2022/09/30 09:31:58;;;;;;;4.82;3.95;;;;;;;;;;5017401;28;20550;-70
2022/09/30 09:34:24;;;;;;;3.72;3.33;;;;;;;;;;5026771;28;20178;-69
2022/09/30 09:37:01;;;;;;;3.65;3.35;;;;;;;;;;5017747;28;20213;-70
2022/09/30 09:39:45;;;;;;;4.47;3.92;;;;;;;;;;5016463;28;20178;-70
2022/09/30 09:42:29;;;;;;;4.47;3.95;;;;;;;;;;5021579;28;20233;-70
2022/09/30 09:45:12;;;;;;;4.20;3.80;;;;;;;;;;5021917;28;20179;-69
2022/09/30 09:47:38;;;;;;;5.18;3.55;;;;;;;;;;5025333;28;20190;-70
2022/09/30 09:50:09;;;;;;;4.60;4.00;;;;;;;;;;5007308;28;20232;-68
2022/09/30 09:52:53;;;;;;;4.55;3.97;;;;;;;;;;5027010;28;20594;-68
2022/09/30 09:55:20;;;;;;;5.32;4.10;;;;;;;;;;5021728;28;20214;-69
2022/09/30 09:57:46;;;;;;;4.40;3.60;;;;;;;;;;5002759;28;20590;-68
2022/09/30 10:03:14;;;;;;;3.85;3.45;;;;;;;;;;5020175;28;20225;-69
2022/09/30 10:05:39;;;;;;;2.92;2.72;;;;;;;;;;5021659;28;20294;-69
2022/09/30 10:08:15;;;;;;;3.63;2.60;;;;;;;;;;5027714;28;20261;-70
2022/09/30 10:10:51;;;;;;;4.07;2.65;;;;;;;;;;5023496;28;20706;-69
2022/09/30 10:13:17;;;;;;;4.38;2.42;;;;;;;;;;5024735;28;20285;-70
2022/09/30 10:15:42;;;;;;;2.13;1.93;;;;;;;;;;5028987;28;20304;-69
2022/09/30 10:18:22;;;;;;;1.98;1.77;;;;;;;;;;5019204;28;20415;-69
2022/09/30 10:20:59;;;;;;;1.45;1.30;;;;;;;;;;5023779;28;20174;-69
2022/09/30 10:23:25;;;;;;;1.83;1.67;;;;;;;;;;5021887;28;20210;-69
2022/09/30 10:26:09;;;;;;;1.55;1.40;;;;;;;;;;5022290;28;20178;-69
2022/09/30 10:28:44;;;;;;;3.25;1.10;;;;;;;;;;5017514;28;20178;-70
2022/09/30 10:31:32;;;;;;;2.20;1.10;;;;;;;;;;4999989;28;20210;-69
2022/09/30 10:34:03;;;;;;;2.25;1.33;;;;;;;;;;5007818;28;20209;-69
2022/09/30 10:36:29;;;;;;;1.13;0.90;;;;;;;;;;5022212;28;20194;-69
2022/09/30 10:39:04;;;;;;;1.17;1.08;;;;;;;;;;5012951;28;20254;-69
2022/09/30 10:41:31;;;;;;;3.28;1.33;;;;;;;;;;5024867;28;20185;-69
2022/09/30 10:43:58;;;;;;;1.60;1.40;;;;;;;;;;5022476;28;20201;-69
2022/09/30 10:46:25;;;;;;;1.30;1.20;;;;;;;;;;5017037;28;20277;-69
2022/09/30 10:48:52;;;;;;;3.88;2.42;;;;;;;;;;5021771;28;20179;-69
2022/09/30 10:51:24;;;;;;;1.38;1.27;;;;;;;;;;5014197;28;20233;-69
2022/09/30 10:53:50;;;;;;;3.92;2.00;;;;;;;;;;5014916;28;20832;-69
2022/09/30 10:56:30;;;;;;;2.38;1.70;;;;;;;;;;5016662;28;20211;-68
2022/09/30 10:58:56;;;;;;;1.98;1.77;;;;;;;;;;5015683;28;20243;-69
2022/09/30 11:01:27;;;;;;;2.90;1.80;;;;;;;;;;5018196;28;20213;-69
2022/09/30 11:04:01;;;;;;;2.88;1.70;;;;;;;;;;5017914;28;20281;-70
2022/09/30 11:06:30;;;;;;;3.13;2.08;;;;;;;;;;5017313;28;20202;-69
2022/09/30 11:09:14;;;;;;;1.92;1.73;;;;;;;;;;5026027;28;20202;-69
2022/09/30 11:11:50;;;;;;;2.80;1.75;;;;;;;;;;5022777;28;20185;-69
2022/09/30 11:14:29;;;;;;;3.67;2.25;;;;;;;;;;5021457;28;20189;-69
2022/09/30 11:16:54;;;;;;;2.85;2.05;;;;;;;;;;5018398;28;20213;-70
2022/09/30 11:19:27;;;;;;;2.87;1.60;;;;;;;;;;5018793;28;20178;-69
2022/09/30 11:21:54;;;;;;;3.22;2.50;;;;;;;;;;5016400;28;20561;-69
2022/09/30 11:24:43;;;;;;;2.58;2.38;;;;;;;;;;5018277;28;20202;-69
2022/09/30 11:27:17;;;;;;;2.92;1.77;;;;;;;;;;5008930;28;20183;-69
2022/09/30 11:29:51;;;;;;;3.17;2.42;;;;;;;;;;5016268;28;20170;-69
2022/09/30 11:32:19;;;;;;;1.90;1.73;;;;;;;;;;5013539;28;20199;-69
2022/09/30 11:34:44;;;;;;;3.78;2.28;;;;;;;;;;5018505;28;20182;-69
2022/09/30 11:37:15;;;;;;;3.53;1.93;;;;;;;;;;5012969;28;20626;-69
2022/09/30 11:39:48;;;;;;;2.45;1.90;;;;;;;;;;5018497;28;20511;-69
2022/09/30 11:42:22;;;;;;;3.67;2.03;;;;;;;;;;5018718;28;20194;-70
2022/09/30 11:44:52;;;;;;;3.63;1.83;;;;;;;;;;5020762;28;20177;-70
2022/09/30 11:47:26;;;;;;;5.18;2.22;;;;;;;;;;5019799;28;20178;-69
2022/09/30 11:50:04;;;;;;;3.00;2.13;;;;;;;;;;5015099;28;20175;-69
2022/09/30 11:52:54;;;;;;;3.75;2.30;;;;;;;;;;5018600;28;20708;-70
2022/09/30 11:55:25;;;;;;;1.98;1.70;;;;;;;;;;5016485;28;20210;-69
2022/09/30 11:57:56;;;;;;;2.90;2.15;;;;;;;;;;5015952;28;20233;-70
2022/09/30 12:00:21;;;;;;;2.17;1.52;;;;;;;;;;5017572;28;20190;-69
2022/09/30 12:02:46;;;;;;;2.17;1.65;;;;;;;;;;5014755;28;20305;-70
2022/09/30 12:05:32;;;;;;;1.98;1.70;;;;;;;;;;5016622;28;20248;-70
2022/09/30 12:08:16;;;;;;;1.73;1.60;;;;;;;;;;5014444;28;20195;-69
2022/09/30 12:10:43;;;;;;;2.15;1.60;;;;;;;;;;5023463;28;20182;-68
2022/09/30 12:13:13;;;;;;;3.13;2.50;;;;;;;;;;5027101;28;20194;-68
2022/09/30 12:15:43;;;;;;;2.47;2.28;;;;;;;;;;5025298;28;20210;-72
2022/09/30 12:18:11;;;;;;;4.20;2.78;;;;;;;;;;5023211;28;20645;-68
2022/09/30 12:20:40;;;;;;;4.00;2.30;;;;;;;;;;5023078;28;20182;-68
2022/09/30 12:23:11;;;;;;;2.88;1.80;;;;;;;;;;5022304;28;20209;-69
2022/09/30 12:25:39;;;;;;;4.25;2.55;;;;;;;;;;5027891;28;20179;-68
2022/09/30 12:31:01;;;;;;;4.70;2.95;;;;;;;;;;5024647;28;20193;-69
2022/09/30 12:33:42;;;;;;;6.57;3.40;;;;;;;;;;5030239;28;20284;-68
2022/09/30 12:36:26;;;;;;;4.85;3.30;;;;;;;;;;5029233;28;20719;-69
2022/09/30 12:38:57;;;;;;;4.68;3.28;;;;;;;;;;5020670;28;20327;-68
2022/09/30 12:41:31;;;;;;;4.70;3.53;;;;;;;;;;5026142;28;20813;-68
2022/09/30 12:43:59;;;;;;;3.45;3.15;;;;;;;;;;5021822;28;20203;-68
2022/09/30 12:46:24;;;;;;;4.20;2.58;;;;;;;;;;5003929;28;20214;-69
2022/09/30 12:49:02;;;;;;;2.90;2.33;;;;;;;;;;5011143;28;20176;-69
2022/09/30 12:51:32;;;;;;;2.95;2.42;;;;;;;;;;5011260;28;20479;-68
2022/09/30 12:54:19;;;;;;;3.70;2.20;;;;;;;;;;5026434;28;20561;-69
2022/09/30 12:56:47;;;;;;;2.35;2.17;;;;;;;;;;5021131;28;20205;-68
2022/09/30 12:59:13;;;;;;;3.70;2.60;;;;;;;;;;5001354;28;20208;-69
2022/09/30 13:01:39;;;;;;;4.50;2.90;;;;;;;;;;4999134;28;20181;-69
2022/09/30 13:04:04;;;;;;;3.25;2.17;;;;;;;;;;5017323;28;20674;-69
2022/09/30 13:06:44;;;;;;;2.43;2.17;;;;;;;;;;5023901;28;20237;-69
2022/09/30 13:09:15;;;;;;;4.20;2.35;;;;;;;;;;5019520;28;20960;-68
2022/09/30 13:11:47;;;;;;;1.70;1.42;;;;;;;;;;5025336;28;20186;-69
2022/09/30 13:14:12;;;;;;;1.55;1.10;;;;;;;;;;5028139;28;20182;-69
2022/09/30 13:16:57;;;;;;;3.20;1.95;;;;;;;;;;5024081;28;20194;-70
2022/09/30 13:19:29;;;;;;;1.58;1.33;;;;;;;;;;5019973;28;20279;-69
2022/09/30 13:22:14;;;;;;;2.72;1.75;;;;;;;;;;5020679;28;20664;-70
2022/09/30 13:25:04;;;;;;;3.10;1.80;;;;;;;;;;5029215;28;20247;-68
2022/09/30 13:27:32;;;;;;;1.73;1.50;;;;;;;;;;5019986;28;20257;-69
2022/09/30 13:29:58;;;;;;;3.08;1.48;;;;;;;;;;5024920;28;20185;-69
2022/09/30 13:32:31;;;;;;;1.30;1.20;;;;;;;;;;5026476;28;21142;-69
2022/09/30 13:34:57;;;;;;;2.40;1.25;;;;;;;;;;5026983;28;20206;-69
2022/09/30 13:37:30;;;;;;;1.88;1.45;;;;;;;;;;5027461;28;20663;-69
2022/09/30 13:39:55;;;;;;;5.10;1.58;;;;;;;;;;5019473;28;20652;-69
2022/09/30 13:42:26;;;;;;;2.10;1.20;;;;;;;;;;5024136;28;20256;-69
2022/09/30 13:44:54;;;;;;;1.83;1.00;;;;;;;;;;5019913;28;20232;-70
2022/09/30 13:47:26;;;;;;;2.20;1.23;;;;;;;;;;5028682;28;20205;-69
2022/09/30 13:50:05;;;;;;;3.08;1.02;;;;;;;;;;5024082;28;20183;-69
2022/09/30 13:52:34;;;;;;;3.75;1.10;;;;;;;;;;5021498;28;20576;-69
2022/09/30 13:55:15;;;;;;;1.65;1.15;;;;;;;;;;5019380;28;20664;-69
2022/09/30 13:58:00;;;;;;;2.17;1.00;;;;;;;;;;5024919;28;20209;-69
2022/09/30 14:00:28;;;;;;;1.50;0.88;;;;;;;;;;4981728;28;20421;-69
2022/09/30 14:03:05;;;;;;;1.17;0.88;;;;;;;;;;5017637;28;20614;-69
2022/09/30 14:05:53;;;;;;;1.48;1.23;;;;;;;;;;5022506;28;20729;-70
2022/09/30 14:08:30;;;;;;;2.20;1.50;;;;;;;;;;5020545;28;20198;-69
2022/09/30 14:11:15;;;;;;;1.60;1.35;;;;;;;;;;5017813;28;20177;-69
2022/09/30 14:13:49;;;;;;;1.88;1.77;;;;;;;;;;5023785;28;20267;-69
2022/09/30 14:16:26;;;;;;;2.50;1.90;;;;;;;;;;5019656;28;20216;-68
2022/09/30 14:18:52;;;;;;;9.95;2.20;;;;;;;;;;5023560;28;20181;-70
2022/09/30 14:21:17;;;;;;;2.42;2.15;;;;;;;;;;5018830;28;20171;-68
2022/09/30 14:23:43;;;;;;;3.90;2.47;;;;;;;;;;5022668;28;20217;-70
2022/09/30 14:26:14;;;;;;;3.90;2.80;;;;;;;;;;5017428;28;20447;-69
2022/09/30 14:28:46;;;;;;;7.57;3.35;;;;;;;;;;5019521;28;20324;-69
2022/09/30 14:31:15;;;;;;;4.32;3.83;;;;;;;;;;5015066;28;20665;-69
2022/09/30 14:33:41;;;;;;;4.63;3.50;;;;;;;;;;5021251;28;20201;-69
2022/09/30 14:36:11;;;;;;;4.00;3.08;;;;;;;;;;5018746;28;20194;-70
2022/09/30 14:38:37;;;;;;;4.47;3.38;;;;;;;;;;5021068;28;20223;-69
2022/09/30 14:41:07;;;;;;;4.53;3.50;;;;;;;;;;5021421;28;20204;-69
2022/09/30 14:43:34;;;;;;;4.90;3.13;;;;;;;;;;5016264;28;20194;-69
2022/09/30 14:46:19;;;;;;;3.10;2.75;;;;;;;;;;5020179;28;20263;-69
2022/09/30 14:48:45;;;;;;;4.40;3.35;;;;;;;;;;5004038;28;20190;-68
2022/09/30 14:51:14;;;;;;;3.13;2.83;;;;;;;;;;5022443;28;20189;-69
2022/09/30 14:53:41;;;;;;;4.07;2.42;;;;;;;;;;5022056;28;20193;-69
2022/09/30 14:56:20;;;;;;;3.97;2.50;;;;;;;;;;5018538;28;20198;-69